METAR AND TAF INFORMATION
METAR FOR LGKR
ADDS - METARS form results

(1337 UTC 19 December 2018)
Data provider http://aviationweather.gov/metar/data/
 
METAR text: LGKR 191320Z 18002KT 9999 FEW025 16/07 Q1021 NOSIG
Conditions at: LGKR (IOANNIS KAPODIST, GR) observed 1320 UTC 19 December 2018
Temperature: 16.0°C (61°F)
Dewpoint: 7.0°C (45°F) [RH = 55%]
Pressure (altimeter): 30.15 inches Hg (1021.0 mb)
Winds: from the S (180 degrees) at 2 MPH (2 knots; 1.0 m/s)
Visibility: 6 or more miles (10+ km)
Ceiling: at least 12,000 feet AGL
Clouds: few clouds at 2500 feet AGL
Weather: no significant weather observed at this time

METAR text: LGKR 191250Z 09002KT 9999 FEW025 16/07 Q1021 NOSIG
Conditions at: LGKR (IOANNIS KAPODIST, GR) observed 1250 UTC 19 December 2018
Temperature: 16.0°C (61°F)
Dewpoint: 7.0°C (45°F) [RH = 55%]
Pressure (altimeter): 30.15 inches Hg (1021.0 mb)
Winds: from the E (90 degrees) at 2 MPH (2 knots; 1.0 m/s)
Visibility: 6 or more miles (10+ km)
Ceiling: at least 12,000 feet AGL
Clouds: few clouds at 2500 feet AGL
Weather: no significant weather observed at this time

Forecast for: LGKR (IOANNIS KAPODIST, GR)
Text: TAF LGKR 191100Z 1912/2012 VRB03KT 9999 FEW020
Forecast period: 1200 UTC 19 December 2018 to 1200 UTC 20 December 2018
Forecast type: FROM: standard forecast or significant change
Winds: variable direction winds at 3 MPH (3 knots; 1.5 m/s)
Visibility: 6 or more miles 10+ km)
Ceiling: at least 12,000 feet AGL
Clouds: few clouds at 2000 feet AGL
Weather: no significant weather forecast for this period

 AIRPORT MAP

 RUNWAY INFORMATION
Runway 17 Runway length 7792 ft Runway width 148 ft
Runway elevation 5 ft Runway displaced threshold 1348 ft Runway heading 169
Runway 35 Runway length 7792 ft Runway width 148 ft
Runway elevation 5 ft Runway displaced threshold 213 ft Runway heading 349

 AIRPORT FREQUENCIES
Type A/G Name KERKIRA RD Frequency 563.7 MHZ
Type APP Name KERKIRA AP Frequency 118.075 MHZ
Type ATIS Name ATIS Frequency 126.35 MHZ
Type TWR Name KERKIRA TW Frequency 120.85 MHZ

 AIRPORT NEAR NAVIGATION AIDS
Type VOR-DME Name Garitsa Frequency 108800 KHZ
Type NDB Name Kerkira Frequency 403 KHZ
Type VOR-DME Name Kerkira Frequency 114700 KHZ



Air Greece virtual AIrline - All rights reserved 2018 - Powered by Virtual Airlines Manager [v2.6.2]